createdAt,value
2022-11-29T00:01:44.174Z,25.95
2022-11-29T00:04:13.037Z,24.10
2022-11-29T00:06:41.880Z,25.63
2022-11-29T00:09:13.149Z,24.35
2022-11-29T00:12:00.708Z,25.05
2022-11-29T00:14:29.912Z,23.02
2022-11-29T00:17:02.599Z,23.83
2022-11-29T00:19:31.621Z,24.98
2022-11-29T00:22:00.472Z,26.35
2022-11-29T00:24:31.676Z,25.75
2022-11-29T00:27:01.324Z,25.90
2022-11-29T00:29:31.140Z,24.55
2022-11-29T00:32:01.560Z,25.85
2022-11-29T00:34:30.540Z,25.42
2022-11-29T00:36:59.188Z,25.45
2022-11-29T00:39:28.169Z,25.00
2022-11-29T00:41:56.873Z,25.45
2022-11-29T00:44:25.710Z,25.02
2022-11-29T00:46:54.196Z,24.67
2022-11-29T00:49:24.223Z,24.50
2022-11-29T00:51:52.944Z,25.42
2022-11-29T00:54:21.676Z,24.55
2022-11-29T00:56:50.346Z,18.98
2022-11-29T00:59:19.172Z,24.23
2022-11-29T01:01:47.519Z,25.65
2022-11-29T01:04:16.325Z,23.02
2022-11-29T01:06:47.343Z,23.95
2022-11-29T01:09:16.054Z,24.33
2022-11-29T01:11:44.851Z,24.17
2022-11-29T01:14:14.567Z,26.75
2022-11-29T01:16:42.888Z,24.48
2022-11-29T01:19:11.793Z,24.17
2022-11-29T01:21:41.336Z,24.20
2022-11-29T01:24:11.551Z,23.23
2022-11-29T01:26:40.255Z,22.92
2022-11-29T01:29:09.041Z,25.13
2022-11-29T01:31:37.403Z,25.38
2022-11-29T01:34:07.672Z,25.63
2022-11-29T01:39:06.168Z,22.73
2022-11-29T01:41:37.949Z,22.83
2022-11-29T01:44:27.931Z,24.67
2022-11-29T01:46:56.961Z,25.35
2022-11-29T01:49:31.945Z,23.80
2022-11-29T01:52:02.601Z,27.20
2022-11-29T01:54:31.893Z,23.75
2022-11-29T01:57:04.659Z,18.93
2022-11-29T01:59:33.390Z,24.52
2022-11-29T02:02:06.319Z,24.27
2022-11-29T02:04:36.350Z,23.35
2022-11-29T02:07:05.370Z,24.63
2022-11-29T02:09:34.077Z,24.63
2022-11-29T02:12:18.911Z,25.10
2022-11-29T02:15:06.742Z,25.52
2022-11-29T02:17:42.535Z,24.98
2022-11-29T02:20:43.038Z,24.15
2022-11-29T02:26:00.028Z,25.95
2022-11-29T02:28:47.010Z,24.52
2022-11-29T02:31:52.998Z,25.67
2022-11-29T02:34:50.641Z,23.77
2022-11-29T02:37:44.210Z,26.83
2022-11-29T02:40:24.541Z,25.52
2022-11-29T02:45:40.035Z,24.88
2022-11-29T02:48:22.798Z,25.20
2022-11-29T02:50:56.432Z,23.08
2022-11-29T02:53:30.960Z,22.90
2022-11-29T02:56:07.323Z,27.63
2022-11-29T02:58:39.776Z,25.17
2022-11-29T03:01:12.289Z,25.27
2022-11-29T03:03:45.061Z,24.30
2022-11-29T03:06:23.547Z,24.50
2022-11-29T03:08:56.090Z,24.80
2022-11-29T03:11:30.420Z,24.70
2022-11-29T03:14:08.953Z,23.77
2022-11-29T03:16:43.501Z,24.20
2022-11-29T03:19:25.363Z,21.05
2022-11-29T03:22:03.263Z,23.63
2022-11-29T03:24:36.975Z,22.33
2022-11-29T03:27:10.828Z,23.30
2022-11-29T03:29:41.908Z,23.33
2022-11-29T03:32:14.056Z,24.40
2022-11-29T03:34:57.337Z,24.13
2022-11-29T03:37:33.330Z,23.67
2022-11-29T03:40:06.938Z,26.08
2022-11-29T03:42:38.977Z,23.60
2022-11-29T03:45:12.532Z,23.98
2022-11-29T03:47:46.560Z,24.40
2022-11-29T03:50:18.401Z,25.02
2022-11-29T03:52:51.291Z,22.52
2022-11-29T03:55:31.107Z,25.35
2022-11-29T03:58:10.958Z,20.83
2022-11-29T04:00:56.168Z,23.50
2022-11-29T04:03:58.839Z,23.02
2022-11-29T04:06:40.700Z,24.00
2022-11-29T04:09:45.180Z,24.92
2022-11-29T04:12:43.598Z,22.65
2022-11-29T04:15:31.695Z,23.52
2022-11-29T04:18:31.690Z,24.65
2022-11-29T04:21:33.445Z,18.73
2022-11-29T04:24:36.661Z,14.93
2022-11-29T04:27:32.278Z,25.30
2022-11-29T04:30:14.772Z,17.02
2022-11-29T04:33:16.534Z,23.38
2022-11-29T04:35:59.650Z,20.63
2022-11-29T04:38:48.822Z,24.40
2022-11-29T04:41:41.586Z,23.27
2022-11-29T04:44:29.022Z,24.95
2022-11-29T04:47:09.508Z,21.63
2022-11-29T04:50:01.953Z,24.38
2022-11-29T04:52:44.616Z,24.85
2022-11-29T04:55:34.622Z,24.52
2022-11-29T04:58:10.713Z,25.67
2022-11-29T05:00:46.121Z,19.65
2022-11-29T05:03:21.905Z,19.55
2022-11-29T05:05:55.147Z,23.17
2022-11-29T05:08:31.275Z,27.50
2022-11-29T05:11:05.666Z,27.95
2022-11-29T05:13:44.093Z,27.65
2022-11-29T05:16:34.873Z,28.35
2022-11-29T05:19:20.290Z,27.73
2022-11-29T05:21:54.255Z,29.15
2022-11-29T05:24:32.582Z,30.58
2022-11-29T05:27:07.447Z,30.88
2022-11-29T05:29:41.865Z,30.10
2022-11-29T05:32:29.766Z,31.30
2022-11-29T05:35:21.915Z,29.92
2022-11-29T05:37:52.933Z,30.85
2022-11-29T05:40:46.371Z,29.75
2022-11-29T05:43:26.488Z,28.73
2022-11-29T05:46:01.516Z,28.23
2022-11-29T05:48:36.939Z,25.98
2022-11-29T05:51:16.903Z,31.67
2022-11-29T05:53:49.149Z,30.10
2022-11-29T05:56:25.081Z,30.40
2022-11-29T05:58:58.226Z,30.15
2022-11-29T06:01:29.341Z,29.00
2022-11-29T06:04:09.137Z,33.28
2022-11-29T06:06:46.127Z,26.20
2022-11-29T06:09:20.075Z,34.33
2022-11-29T06:11:50.538Z,31.65
2022-11-29T06:14:34.067Z,28.10
2022-11-29T06:17:15.941Z,34.38
2022-11-29T06:19:55.380Z,32.08
2022-11-29T06:22:47.568Z,33.33
2022-11-29T06:25:26.549Z,32.33
2022-11-29T06:28:06.806Z,32.20
2022-11-29T06:30:42.891Z,31.92
2022-11-29T06:33:19.882Z,33.80
2022-11-29T06:35:53.820Z,33.60
2022-11-29T06:38:24.226Z,23.90
2022-11-29T06:40:58.623Z,33.42
2022-11-29T06:43:30.886Z,31.85
2022-11-29T06:46:03.050Z,27.45
2022-11-29T06:48:36.370Z,33.92
2022-11-29T06:51:09.792Z,34.17
2022-11-29T06:53:44.462Z,32.50
2022-11-29T06:56:20.722Z,30.05
2022-11-29T06:59:00.166Z,35.25
2022-11-29T07:01:37.245Z,37.70
2022-11-29T07:04:45.766Z,37.63
2022-11-29T07:07:21.520Z,31.60
2022-11-29T07:09:53.027Z,32.03
2022-11-29T07:12:22.557Z,32.47
2022-11-29T07:14:51.970Z,40.80
2022-11-29T07:17:25.986Z,34.97
2022-11-29T07:20:03.730Z,41.72
2022-11-29T07:22:47.110Z,39.15
2022-11-29T07:25:24.938Z,39.78
2022-11-29T07:27:59.149Z,38.85
2022-11-29T07:30:31.447Z,32.20
2022-11-29T07:33:06.602Z,31.50
2022-11-29T07:35:41.846Z,40.50
2022-11-29T07:38:18.082Z,36.75
2022-11-29T07:40:52.674Z,38.78
2022-11-29T07:43:31.414Z,32.50
2022-11-29T07:46:01.447Z,33.97
2022-11-29T07:48:30.141Z,26.88
2022-11-29T07:50:58.895Z,41.08
2022-11-29T07:53:29.251Z,40.47
2022-11-29T07:55:59.346Z,32.50
2022-11-29T07:58:28.059Z,36.83
2022-11-29T08:00:56.895Z,42.38
2022-11-29T08:03:25.658Z,37.47
2022-11-29T08:05:54.878Z,38.22
2022-11-29T08:08:23.584Z,37.78
2022-11-29T08:10:53.282Z,35.38
2022-11-29T08:13:22.491Z,32.72
2022-11-29T08:15:51.233Z,39.03
2022-11-29T08:18:19.940Z,30.83
2022-11-29T08:20:48.618Z,36.30
2022-11-29T08:23:17.341Z,36.22
2022-11-29T08:25:45.975Z,28.45
2022-11-29T08:28:16.203Z,21.88
2022-11-29T08:30:44.880Z,32.75
2022-11-29T08:33:13.619Z,32.97
2022-11-29T08:35:42.465Z,33.65
2022-11-29T08:38:11.121Z,29.30
2022-11-29T08:40:39.528Z,25.83
2022-11-29T08:43:08.344Z,33.63
2022-11-29T08:45:38.686Z,31.90
2022-11-29T08:48:08.181Z,27.35
2022-11-29T08:50:36.873Z,31.40
2022-11-29T08:53:22.957Z,28.00
2022-11-29T08:55:51.254Z,29.27
2022-11-29T08:58:21.521Z,33.28
2022-11-29T09:00:51.705Z,33.47
2022-11-29T09:03:37.880Z,32.50
2022-11-29T09:06:12.264Z,32.90
2022-11-29T09:08:43.718Z,30.27
2022-11-29T09:11:14.416Z,30.60
2022-11-29T09:16:15.510Z,31.10
2022-11-29T09:18:50.063Z,24.90
2022-11-29T09:21:20.537Z,32.17
2022-11-29T09:23:49.318Z,30.60
2022-11-29T09:26:19.969Z,24.40
2022-11-29T09:31:18.315Z,25.65
2022-11-29T09:36:15.795Z,20.83
2022-11-29T09:38:44.658Z,28.10
2022-11-29T09:41:26.332Z,27.38
2022-11-29T09:44:01.943Z,24.88
2022-11-29T09:46:40.004Z,27.80
2022-11-29T09:49:21.866Z,29.65
2022-11-29T09:51:56.361Z,27.90
2022-11-29T09:54:36.558Z,29.90
2022-11-29T09:57:10.524Z,23.55
2022-11-29T09:59:42.917Z,25.40
2022-11-29T10:02:21.418Z,24.25
2022-11-29T10:04:52.574Z,28.08
2022-11-29T10:07:23.590Z,26.13
2022-11-29T10:09:55.978Z,24.83
2022-11-29T10:12:30.625Z,22.13
2022-11-29T10:15:03.843Z,27.00
2022-11-29T10:17:37.758Z,23.42
2022-11-29T10:20:12.940Z,24.92
2022-11-29T10:22:45.565Z,24.85
2022-11-29T10:25:21.742Z,24.05
2022-11-29T10:27:50.796Z,22.65
2022-11-29T10:30:19.920Z,21.80
2022-11-29T10:32:52.607Z,24.90
2022-11-29T10:35:21.827Z,24.52
2022-11-29T10:38:14.675Z,22.77
2022-11-29T10:40:41.457Z,23.13
2022-11-29T10:43:10.280Z,21.58
2022-11-29T10:45:45.937Z,14.82
2022-11-29T10:48:17.863Z,22.92
2022-11-29T10:50:48.849Z,24.67
2022-11-29T10:53:19.806Z,24.75
2022-11-29T10:55:51.016Z,21.40
2022-11-29T10:58:27.912Z,18.63
2022-11-29T11:00:59.261Z,23.27
2022-11-29T11:03:36.222Z,24.20
2022-11-29T11:06:09.684Z,22.15
2022-11-29T11:08:39.775Z,16.60
2022-11-29T11:11:08.944Z,22.58
2022-11-29T11:13:39.344Z,23.52
2022-11-29T11:16:17.075Z,22.20
2022-11-29T11:18:48.440Z,21.10
2022-11-29T11:21:19.807Z,21.08
2022-11-29T11:23:55.311Z,24.35
2022-11-29T11:26:25.070Z,22.63
2022-11-29T11:28:57.904Z,22.57
2022-11-29T11:31:38.065Z,21.35
2022-11-29T11:34:34.352Z,21.58
2022-11-29T11:37:25.143Z,20.98
2022-11-29T11:39:55.962Z,22.08
2022-11-29T11:42:38.927Z,23.13
2022-11-29T11:45:31.641Z,24.73
2022-11-29T11:48:03.287Z,21.00
2022-11-29T11:50:35.504Z,23.42
2022-11-29T11:53:06.890Z,22.08
2022-11-29T11:55:37.918Z,20.70
2022-11-29T11:58:18.069Z,22.63
2022-11-29T12:01:05.532Z,18.38
2022-11-29T12:03:39.712Z,20.55
2022-11-29T12:06:25.498Z,23.25
2022-11-29T12:08:57.166Z,18.40
2022-11-29T12:11:26.675Z,23.25
2022-11-29T12:13:57.804Z,21.05
2022-11-29T12:16:30.810Z,23.55
2022-11-29T12:19:02.783Z,22.35
2022-11-29T12:21:37.872Z,22.48
2022-11-29T12:24:15.040Z,22.70
2022-11-29T12:26:59.720Z,21.67
2022-11-29T12:29:30.832Z,21.08
2022-11-29T12:32:06.623Z,17.33
2022-11-29T12:34:52.491Z,22.08
2022-11-29T12:37:27.005Z,23.08
2022-11-29T12:40:01.123Z,22.58
2022-11-29T12:42:44.339Z,20.60
2022-11-29T12:45:25.804Z,22.75
2022-11-29T12:48:02.420Z,22.80
2022-11-29T12:50:37.368Z,23.23
2022-11-29T12:53:27.050Z,19.35
2022-11-29T12:56:04.140Z,21.67
2022-11-29T12:58:41.282Z,22.08
2022-11-29T13:01:19.847Z,23.35
2022-11-29T13:03:54.957Z,21.70
2022-11-29T13:06:28.669Z,23.20
2022-11-29T13:09:26.567Z,22.05
2022-11-29T13:11:59.200Z,21.90
2022-11-29T13:14:42.639Z,21.35
2022-11-29T13:17:22.989Z,21.60
2022-11-29T13:19:54.235Z,17.55
2022-11-29T13:22:33.412Z,15.50
2022-11-29T13:25:05.882Z,13.60
2022-11-29T13:27:36.722Z,21.48
2022-11-29T13:30:06.581Z,23.42
2022-11-29T13:32:37.259Z,16.45
2022-11-29T13:35:12.964Z,14.48
2022-11-29T13:37:50.616Z,23.35
2022-11-29T13:40:29.805Z,20.33
2022-11-29T13:43:02.539Z,19.05
2022-11-29T13:45:36.409Z,21.65
2022-11-29T13:48:27.864Z,22.70
2022-11-29T13:50:57.316Z,21.73
2022-11-29T13:53:29.632Z,22.17
2022-11-29T13:56:01.877Z,22.75
2022-11-29T13:58:40.626Z,21.92
2022-11-29T14:01:10.206Z,22.63
2022-11-29T14:03:41.120Z,23.77
2022-11-29T14:06:12.603Z,23.38
2022-11-29T14:09:17.421Z,22.00
2022-11-29T14:11:37.932Z,22.27
2022-11-29T14:14:09.037Z,22.17
2022-11-29T14:16:40.699Z,22.85
2022-11-29T14:19:32.867Z,22.70
2022-11-29T14:22:26.208Z,23.98
2022-11-29T14:25:42.897Z,23.10
2022-11-29T14:28:05.386Z,20.70
2022-11-29T14:30:47.697Z,20.80
2022-11-29T14:33:28.261Z,22.60
2022-11-29T14:36:08.777Z,21.77
2022-11-29T14:38:43.208Z,23.95
2022-11-29T14:41:21.364Z,24.40
2022-11-29T14:43:51.223Z,24.58
2022-11-29T14:46:29.403Z,25.17
2022-11-29T14:49:01.131Z,24.48
2022-11-29T14:51:32.092Z,23.33
2022-11-29T14:54:07.676Z,23.10
2022-11-29T14:56:39.146Z,24.25
2022-11-29T14:59:42.661Z,24.40
2022-11-29T15:02:25.025Z,23.08
2022-11-29T15:04:56.286Z,21.52
2022-11-29T15:07:29.331Z,14.75
2022-11-29T15:10:01.053Z,24.95
2022-11-29T15:12:35.062Z,26.08
2022-11-29T15:15:12.568Z,23.55
2022-11-29T15:17:49.206Z,26.20
2022-11-29T15:20:42.502Z,24.50
2022-11-29T15:23:13.044Z,23.63
2022-11-29T15:25:48.665Z,23.42
2022-11-29T15:28:22.899Z,23.40
2022-11-29T15:31:02.898Z,20.23
2022-11-29T15:33:31.697Z,23.13
2022-11-29T15:36:06.668Z,22.02
2022-11-29T15:38:43.272Z,24.25
2022-11-29T15:41:21.049Z,22.10
2022-11-29T15:43:53.363Z,18.25
2022-11-29T15:46:26.928Z,22.80
2022-11-29T15:48:55.821Z,22.80
2022-11-29T15:51:29.787Z,23.17
2022-11-29T15:54:12.127Z,22.42
2022-11-29T15:56:45.714Z,23.92
2022-11-29T15:59:18.318Z,21.38
2022-11-29T16:01:51.479Z,20.98
2022-11-29T16:04:21.823Z,23.70
2022-11-29T16:06:51.857Z,18.45
2022-11-29T16:09:22.676Z,24.27
2022-11-29T16:11:51.573Z,22.58
2022-11-29T16:14:23.400Z,21.00
2022-11-29T16:16:55.610Z,24.58
2022-11-29T16:19:32.090Z,25.52
2022-11-29T16:22:22.432Z,26.25
2022-11-29T16:27:24.531Z,26.63
2022-11-29T16:29:55.141Z,10.97
2022-11-29T16:32:28.641Z,27.15
2022-11-29T16:34:57.911Z,25.15
2022-11-29T16:37:28.165Z,26.15
2022-11-29T16:40:00.013Z,25.95
2022-11-29T16:42:30.161Z,25.20
2022-11-29T16:45:24.317Z,25.63
2022-11-29T16:47:58.951Z,24.38
2022-11-29T16:50:29.042Z,21.08
2022-11-29T16:52:59.234Z,23.42
2022-11-29T16:55:27.914Z,26.27
2022-11-29T16:57:56.671Z,26.63
2022-11-29T17:00:31.532Z,25.08
2022-11-29T17:03:01.624Z,20.90
2022-11-29T17:05:30.386Z,25.35
2022-11-29T17:07:59.067Z,27.23
2022-11-29T17:10:28.981Z,25.73
2022-11-29T17:12:57.639Z,26.65
2022-11-29T17:15:26.238Z,27.08
2022-11-29T17:17:54.913Z,25.55
2022-11-29T17:20:25.005Z,23.25
2022-11-29T17:22:53.364Z,25.55
2022-11-29T17:25:22.006Z,25.50
2022-11-29T17:27:50.740Z,29.52
2022-11-29T17:30:19.760Z,19.67
2022-11-29T17:32:48.514Z,30.25
2022-11-29T17:35:17.266Z,27.83
2022-11-29T17:37:46.955Z,26.00
2022-11-29T17:40:16.171Z,20.63
2022-11-29T17:42:44.917Z,23.13
2022-11-29T17:45:13.515Z,25.45
2022-11-29T17:47:42.346Z,16.10
2022-11-29T17:50:12.193Z,28.38
2022-11-29T17:52:40.660Z,21.95
2022-11-29T17:55:11.456Z,26.73
2022-11-29T17:57:40.125Z,25.08
2022-11-29T18:00:12.963Z,17.58
2022-11-29T18:02:41.748Z,24.88
2022-11-29T18:05:10.881Z,28.98
2022-11-29T18:07:58.053Z,23.63
2022-11-29T18:10:29.411Z,28.88
2022-11-29T18:12:58.239Z,26.63
2022-11-29T18:15:26.929Z,26.63
2022-11-29T18:17:55.617Z,22.75
2022-11-29T18:20:24.318Z,21.20
2022-11-29T18:22:53.419Z,25.40
2022-11-29T18:25:39.564Z,24.70
2022-11-29T18:28:11.470Z,20.38
2022-11-29T18:30:40.177Z,24.40
2022-11-29T18:33:08.907Z,24.33
2022-11-29T18:35:37.530Z,26.80
2022-11-29T18:38:15.266Z,27.15
2022-11-29T18:40:45.785Z,19.67
2022-11-29T18:43:17.176Z,23.40
2022-11-29T18:45:45.899Z,23.10
2022-11-29T18:48:14.645Z,23.17
2022-11-29T18:50:43.335Z,24.63
2022-11-29T18:53:12.181Z,16.80
2022-11-29T18:55:40.562Z,21.42
2022-11-29T18:58:09.211Z,22.65
2022-11-29T19:00:39.313Z,23.23
2022-11-29T19:03:08.094Z,23.40
2022-11-29T19:05:36.787Z,23.50
2022-11-29T19:08:05.723Z,20.88
2022-11-29T19:10:34.056Z,25.75
2022-11-29T19:13:02.942Z,23.77
2022-11-29T19:15:31.729Z,21.67
2022-11-29T19:18:01.857Z,27.08
2022-11-29T19:20:34.123Z,25.30
2022-11-29T19:23:03.069Z,24.80
2022-11-29T19:25:31.311Z,22.20
2022-11-29T19:28:00.186Z,23.25
2022-11-29T19:30:28.919Z,24.13
2022-11-29T19:32:57.545Z,24.67
2022-11-29T19:35:27.607Z,23.23
2022-11-29T19:37:55.953Z,24.55
2022-11-29T19:40:24.578Z,23.13
2022-11-29T19:42:53.279Z,24.42
2022-11-29T19:45:22.654Z,25.30
2022-11-29T19:47:51.371Z,24.63
2022-11-29T19:50:20.127Z,23.17
2022-11-29T19:52:50.108Z,24.02
2022-11-29T19:55:18.953Z,24.15
2022-11-29T19:57:47.621Z,23.05
2022-11-29T20:00:17.390Z,23.38
2022-11-29T20:02:46.210Z,23.27
2022-11-29T20:05:15.447Z,28.98
2022-11-29T20:07:43.931Z,23.80
2022-11-29T20:10:14.238Z,21.33
2022-11-29T20:15:11.977Z,23.50
2022-11-29T20:17:41.041Z,23.73
2022-11-29T20:20:11.296Z,24.50
2022-11-29T20:22:39.677Z,24.38
2022-11-29T20:25:08.853Z,24.00
2022-11-29T20:27:38.816Z,21.60
2022-11-29T20:30:10.494Z,23.20
2022-11-29T20:32:39.543Z,21.30
2022-11-29T20:35:10.178Z,20.58
2022-11-29T20:37:54.454Z,21.05
2022-11-29T20:40:26.198Z,20.48
2022-11-29T20:43:04.932Z,21.35
2022-11-29T20:45:34.312Z,22.92
2022-11-29T20:48:09.422Z,23.67
2022-11-29T20:50:38.677Z,22.58
2022-11-29T20:53:16.891Z,23.50
2022-11-29T20:55:48.239Z,25.27
2022-11-29T20:58:19.728Z,22.40
2022-11-29T21:00:48.927Z,23.83
2022-11-29T21:03:18.232Z,25.83
2022-11-29T21:05:47.415Z,25.23
2022-11-29T21:08:17.604Z,25.17
2022-11-29T21:10:46.777Z,25.33
2022-11-29T21:13:16.400Z,25.97
2022-11-29T21:15:47.418Z,16.63
2022-11-29T21:18:23.044Z,24.85
2022-11-29T21:21:03.349Z,24.35
2022-11-29T21:26:07.622Z,15.57
2022-11-29T21:28:40.140Z,22.27
2022-11-29T21:31:13.376Z,21.20
2022-11-29T21:33:42.983Z,22.00
2022-11-29T21:36:11.972Z,13.07
2022-11-29T21:38:41.302Z,22.23
2022-11-29T21:41:09.928Z,21.77
2022-11-29T21:44:09.022Z,18.13
2022-11-29T21:46:30.634Z,28.02
2022-11-29T21:48:59.314Z,24.13
2022-11-29T21:51:27.982Z,23.35
2022-11-29T21:53:56.587Z,22.88
2022-11-29T21:56:25.217Z,21.98
2022-11-29T21:58:53.591Z,23.77
2022-11-29T22:01:22.606Z,20.73
2022-11-29T22:03:53.518Z,23.15
2022-11-29T22:06:24.386Z,22.27
2022-11-29T22:08:53.485Z,12.77
2022-11-29T22:11:31.856Z,22.63
2022-11-29T22:14:16.362Z,20.52
2022-11-29T22:16:49.559Z,22.42
2022-11-29T22:19:21.054Z,18.88
2022-11-29T22:21:50.824Z,21.67
2022-11-29T22:24:21.232Z,23.45
2022-11-29T22:26:50.424Z,24.38
2022-11-29T22:29:19.200Z,25.60
2022-11-29T22:31:49.586Z,21.35
2022-11-29T22:34:20.070Z,24.70
2022-11-29T22:36:48.721Z,22.83
2022-11-29T22:39:17.398Z,23.77
2022-11-29T22:41:52.305Z,23.08
2022-11-29T22:44:22.843Z,27.08
2022-11-29T22:46:51.343Z,27.25
2022-11-29T22:49:21.494Z,22.08
2022-11-29T22:51:50.090Z,25.10
2022-11-29T22:54:18.918Z,18.40
2022-11-29T22:56:48.263Z,26.45
2022-11-29T22:59:17.072Z,27.00
2022-11-29T23:01:45.799Z,26.65
2022-11-29T23:04:14.963Z,20.88
2022-11-29T23:06:46.195Z,28.33
2022-11-29T23:09:16.841Z,27.27
2022-11-29T23:11:46.275Z,24.98
2022-11-29T23:14:15.220Z,25.83
2022-11-29T23:16:43.507Z,24.33
2022-11-29T23:19:12.329Z,25.05
2022-11-29T23:21:41.963Z,26.05
2022-11-29T23:24:12.288Z,25.10
2022-11-29T23:26:42.233Z,24.65
2022-11-29T23:29:12.458Z,24.75
2022-11-29T23:31:40.800Z,25.20
2022-11-29T23:34:09.582Z,26.42
2022-11-29T23:36:38.277Z,24.20
2022-11-29T23:39:07.613Z,24.88
2022-11-29T23:41:37.951Z,25.10
2022-11-29T23:46:36.839Z,22.95
2022-11-29T23:49:05.487Z,23.20
2022-11-29T23:51:34.129Z,23.88
2022-11-29T23:54:02.794Z,19.27
2022-11-29T23:56:35.625Z,23.45
2022-11-29T23:59:06.001Z,19.85
